createdAt,value
2022-08-26T00:00:40.992Z,100.00
2022-08-26T00:01:29.626Z,100.00
2022-08-26T00:02:17.028Z,100.00
2022-08-26T00:03:07.848Z,100.00
2022-08-26T00:03:56.766Z,100.00
2022-08-26T00:04:44.692Z,100.00
2022-08-26T00:05:31.855Z,100.00
2022-08-26T00:06:20.897Z,100.00
2022-08-26T00:07:08.191Z,100.00
2022-08-26T00:07:56.122Z,100.00
2022-08-26T00:08:43.471Z,100.00
2022-08-26T00:09:33.842Z,100.00
2022-08-26T00:10:26.272Z,100.00
2022-08-26T00:11:13.942Z,100.00
2022-08-26T00:12:00.941Z,100.00
2022-08-26T00:12:48.101Z,100.00
2022-08-26T00:13:35.342Z,100.00
2022-08-26T00:14:28.260Z,100.00
2022-08-26T00:15:19.171Z,100.00
2022-08-26T00:16:08.574Z,100.00
2022-08-26T00:16:59.281Z,100.00
2022-08-26T00:17:46.904Z,100.00
2022-08-26T00:18:38.804Z,100.00
2022-08-26T00:19:28.418Z,100.00
2022-08-26T00:20:18.881Z,100.00
2022-08-26T00:21:06.455Z,100.00
2022-08-26T00:21:53.742Z,100.00
2022-08-26T00:22:40.912Z,100.00
2022-08-26T00:23:28.857Z,100.00
2022-08-26T00:24:16.392Z,100.00
2022-08-26T00:25:05.920Z,100.00
2022-08-26T00:25:53.622Z,100.00
2022-08-26T00:26:41.435Z,100.00
2022-08-26T00:27:28.452Z,100.00
2022-08-26T00:28:15.383Z,100.00
2022-08-26T00:29:06.231Z,100.00
2022-08-26T00:29:53.062Z,100.00
2022-08-26T00:30:40.383Z,100.00
2022-08-26T00:31:27.435Z,100.00
2022-08-26T00:32:14.391Z,100.00
2022-08-26T00:33:02.433Z,100.00
2022-08-26T00:33:49.563Z,100.00
2022-08-26T00:34:36.612Z,100.00
2022-08-26T00:35:24.592Z,100.00
2022-08-26T00:36:20.433Z,100.00
2022-08-26T00:37:08.962Z,100.00
2022-08-26T00:37:57.991Z,100.00
2022-08-26T00:38:44.854Z,100.00
2022-08-26T00:39:32.872Z,100.00
2022-08-26T00:40:25.645Z,100.00
2022-08-26T00:41:12.911Z,100.00
2022-08-26T00:42:00.771Z,100.00
2022-08-26T00:42:50.132Z,100.00
2022-08-26T00:43:46.287Z,100.00
2022-08-26T00:44:34.833Z,100.00
2022-08-26T00:45:22.001Z,100.00
2022-08-26T00:46:18.952Z,100.00
2022-08-26T00:47:08.462Z,100.00
2022-08-26T00:48:00.991Z,100.00
2022-08-26T00:48:53.866Z,100.00
2022-08-26T00:49:44.974Z,100.00
2022-08-26T00:50:36.752Z,100.00
2022-08-26T00:51:29.789Z,100.00
2022-08-26T00:52:20.121Z,100.00
2022-08-26T00:53:24.162Z,100.00
2022-08-26T00:54:13.245Z,100.00
2022-08-26T00:55:04.871Z,100.00
2022-08-26T00:56:08.288Z,100.00
2022-08-26T00:56:56.211Z,100.00
2022-08-26T00:57:44.401Z,100.00
2022-08-26T00:58:34.104Z,100.00
2022-08-26T00:59:21.912Z,100.00
2022-08-26T01:00:16.884Z,100.00
2022-08-26T01:01:04.426Z,100.00
2022-08-26T01:01:51.862Z,100.00
2022-08-26T01:02:39.459Z,100.00
2022-08-26T01:03:35.052Z,100.00
2022-08-26T01:04:23.521Z,100.00
2022-08-26T01:05:13.208Z,100.00
2022-08-26T01:06:01.702Z,100.00
2022-08-26T01:06:50.464Z,100.00
2022-08-26T01:07:39.622Z,100.00
2022-08-26T01:08:27.422Z,100.00
2022-08-26T01:09:14.811Z,100.00
2022-08-26T01:10:04.172Z,100.00
2022-08-26T01:10:52.532Z,100.00
2022-08-26T01:11:42.991Z,100.00
2022-08-26T01:12:34.381Z,100.00
2022-08-26T01:13:21.603Z,100.00
2022-08-26T01:14:08.913Z,100.00
2022-08-26T01:14:56.323Z,100.00
2022-08-26T01:15:46.742Z,100.00
2022-08-26T01:16:33.654Z,100.00
2022-08-26T01:17:20.605Z,100.00
2022-08-26T01:18:08.093Z,100.00
2022-08-26T01:18:59.582Z,100.00
2022-08-26T01:19:50.741Z,100.00
2022-08-26T01:21:03.823Z,100.00
2022-08-26T01:21:56.952Z,100.00
2022-08-26T01:23:04.148Z,100.00
2022-08-26T01:23:52.282Z,100.00
2022-08-26T01:24:44.742Z,100.00
2022-08-26T01:25:34.122Z,100.00
2022-08-26T01:26:34.071Z,100.00
2022-08-26T01:27:22.221Z,100.00
2022-08-26T01:28:17.566Z,100.00
2022-08-26T01:29:06.243Z,100.00
2022-08-26T01:29:53.211Z,100.00
2022-08-26T01:30:41.012Z,100.00
2022-08-26T01:31:31.688Z,100.00
2022-08-26T01:32:20.473Z,100.00
2022-08-26T01:33:11.894Z,100.00
2022-08-26T01:34:35.422Z,100.00
2022-08-26T01:35:22.462Z,100.00
2022-08-26T01:36:09.572Z,100.00
2022-08-26T01:37:07.791Z,100.00
2022-08-26T01:37:58.623Z,100.00
2022-08-26T01:38:45.721Z,100.00
2022-08-26T01:39:33.671Z,100.00
2022-08-26T01:40:26.948Z,100.00
2022-08-26T01:41:16.285Z,100.00
2022-08-26T01:42:10.782Z,100.00
2022-08-26T01:42:58.871Z,100.00
2022-08-26T01:43:47.382Z,100.00
2022-08-26T01:44:41.074Z,100.00
2022-08-26T01:45:31.109Z,100.00
2022-08-26T01:46:19.185Z,100.00
2022-08-26T01:47:06.933Z,100.00
2022-08-26T01:47:56.765Z,100.00
2022-08-26T01:48:48.062Z,100.00
2022-08-26T01:49:41.149Z,100.00
2022-08-26T01:50:33.144Z,100.00
2022-08-26T01:51:20.703Z,100.00
2022-08-26T01:52:09.221Z,100.00
2022-08-26T01:53:04.093Z,100.00
2022-08-26T01:53:51.151Z,100.00
2022-08-26T01:54:39.619Z,100.00
2022-08-26T01:55:32.179Z,100.00
2022-08-26T01:56:22.392Z,100.00
2022-08-26T01:57:09.591Z,100.00
2022-08-26T01:57:57.561Z,100.00
2022-08-26T01:58:55.560Z,100.00
2022-08-26T01:59:43.195Z,100.00
2022-08-26T02:00:30.102Z,100.00
2022-08-26T02:01:17.204Z,100.00
2022-08-26T02:02:05.130Z,100.00
2022-08-26T02:03:13.750Z,100.00
2022-08-26T02:04:22.040Z,100.00
2022-08-26T02:05:13.321Z,100.00
2022-08-26T02:06:04.171Z,100.00
2022-08-26T02:06:51.590Z,100.00
2022-08-26T02:07:40.016Z,100.00
2022-08-26T02:08:33.301Z,100.00
2022-08-26T02:09:20.383Z,100.00
2022-08-26T02:10:10.381Z,100.00
2022-08-26T02:10:57.417Z,100.00
2022-08-26T02:11:45.333Z,100.00
2022-08-26T02:12:32.200Z,100.00
2022-08-26T02:13:19.091Z,100.00
2022-08-26T02:14:11.552Z,100.00
2022-08-26T02:15:01.408Z,100.00
2022-08-26T02:15:53.529Z,100.00
2022-08-26T02:16:42.765Z,100.00
2022-08-26T02:17:34.666Z,100.00
2022-08-26T02:18:22.877Z,100.00
2022-08-26T02:19:17.039Z,100.00
2022-08-26T02:20:05.061Z,100.00
2022-08-26T02:20:53.162Z,100.00
2022-08-26T02:21:41.291Z,100.00
2022-08-26T02:22:29.020Z,100.00
2022-08-26T02:23:15.951Z,100.00
2022-08-26T02:24:12.032Z,100.00
2022-08-26T02:25:05.611Z,100.00
2022-08-26T02:26:04.891Z,100.00
2022-08-26T02:26:52.120Z,100.00
2022-08-26T02:27:39.093Z,100.00
2022-08-26T02:28:28.354Z,100.00
2022-08-26T02:29:37.051Z,100.00
2022-08-26T02:30:28.539Z,100.00
2022-08-26T02:31:15.548Z,100.00
2022-08-26T02:32:02.661Z,100.00
2022-08-26T02:32:51.682Z,100.00
2022-08-26T02:33:43.011Z,100.00
2022-08-26T02:34:35.251Z,100.00
2022-08-26T02:35:23.832Z,100.00
2022-08-26T02:36:12.147Z,100.00
2022-08-26T02:37:02.132Z,100.00
2022-08-26T02:37:50.561Z,100.00
2022-08-26T02:38:37.512Z,100.00
2022-08-26T02:39:27.223Z,100.00
2022-08-26T02:40:16.101Z,100.00
2022-08-26T02:41:03.407Z,100.00
2022-08-26T02:41:50.552Z,100.00
2022-08-26T02:42:37.838Z,100.00
2022-08-26T02:43:31.504Z,100.00
2022-08-26T02:44:19.840Z,100.00
2022-08-26T02:45:07.732Z,100.00
2022-08-26T02:45:54.802Z,100.00
2022-08-26T02:46:42.190Z,100.00
2022-08-26T02:47:34.321Z,100.00
2022-08-26T02:48:21.751Z,100.00
2022-08-26T02:49:09.972Z,100.00
2022-08-26T02:49:56.773Z,100.00
2022-08-26T02:50:44.013Z,100.00
2022-08-26T02:51:31.154Z,100.00
2022-08-26T02:52:20.352Z,100.00
2022-08-26T02:53:08.759Z,100.00
2022-08-26T02:53:55.734Z,100.00
2022-08-26T02:54:42.871Z,100.00
2022-08-26T02:55:29.841Z,100.00
2022-08-26T02:56:16.761Z,100.00
2022-08-26T02:57:03.932Z,100.00
2022-08-26T02:57:53.532Z,100.00
2022-08-26T02:58:40.540Z,100.00
2022-08-26T02:59:29.519Z,100.00
2022-08-26T03:00:17.213Z,100.00
2022-08-26T03:01:04.869Z,100.00
2022-08-26T03:01:52.612Z,100.00
2022-08-26T03:02:42.971Z,100.00
2022-08-26T03:03:30.341Z,100.00
2022-08-26T03:04:17.303Z,100.00
2022-08-26T03:05:04.591Z,100.00
2022-08-26T03:05:52.673Z,100.00
2022-08-26T03:06:39.797Z,100.00
2022-08-26T03:07:28.412Z,100.00
2022-08-26T03:08:15.751Z,100.00
2022-08-26T03:09:02.670Z,100.00
2022-08-26T03:09:50.331Z,100.00
2022-08-26T03:10:39.461Z,100.00
2022-08-26T03:11:30.947Z,100.00
2022-08-26T03:12:20.562Z,100.00
2022-08-26T03:13:07.707Z,100.00
2022-08-26T03:13:55.429Z,100.00
2022-08-26T03:14:42.411Z,100.00
2022-08-26T03:15:29.363Z,100.00
2022-08-26T03:16:16.770Z,100.00
2022-08-26T03:17:04.180Z,100.00
2022-08-26T03:17:51.062Z,100.00
2022-08-26T03:18:38.113Z,100.00
2022-08-26T03:19:26.339Z,100.00
2022-08-26T03:20:13.764Z,100.00
2022-08-26T03:21:07.212Z,100.00
2022-08-26T03:21:57.748Z,100.00
2022-08-26T03:22:45.674Z,100.00
2022-08-26T03:23:33.351Z,100.00
2022-08-26T03:24:21.452Z,100.00
2022-08-26T03:25:11.703Z,100.00
2022-08-26T03:25:58.595Z,100.00
2022-08-26T03:26:51.991Z,100.00
2022-08-26T03:27:39.861Z,100.00
2022-08-26T03:28:29.861Z,100.00
2022-08-26T03:29:35.384Z,100.00
2022-08-26T03:30:45.489Z,100.00
2022-08-26T03:31:32.700Z,100.00
2022-08-26T03:32:20.858Z,100.00
2022-08-26T03:33:10.332Z,100.00
2022-08-26T03:33:59.818Z,100.00
2022-08-26T03:34:47.012Z,100.00
2022-08-26T03:35:34.911Z,100.00
2022-08-26T03:36:22.352Z,100.00
2022-08-26T03:37:09.224Z,100.00
2022-08-26T03:37:56.594Z,100.00
2022-08-26T03:38:44.141Z,100.00
2022-08-26T03:39:32.613Z,100.00
2022-08-26T03:40:20.576Z,100.00
2022-08-26T03:41:09.213Z,100.00
2022-08-26T03:41:56.022Z,100.00
2022-08-26T03:42:45.402Z,100.00
2022-08-26T03:43:32.312Z,100.00
2022-08-26T03:44:19.382Z,100.00
2022-08-26T03:45:09.054Z,100.00
2022-08-26T03:45:55.831Z,100.00
2022-08-26T03:46:42.793Z,100.00
2022-08-26T03:47:31.831Z,100.00
2022-08-26T03:48:19.071Z,100.00
2022-08-26T03:49:06.311Z,100.00
2022-08-26T03:49:53.406Z,100.00
2022-08-26T03:50:40.671Z,100.00
2022-08-26T03:51:28.433Z,100.00
2022-08-26T03:52:15.612Z,100.00
2022-08-26T03:53:02.801Z,100.00
2022-08-26T03:53:49.601Z,100.00
2022-08-26T03:54:36.401Z,100.00
2022-08-26T03:55:26.905Z,100.00
2022-08-26T03:56:15.165Z,100.00
2022-08-26T03:57:02.312Z,100.00
2022-08-26T03:57:50.112Z,100.00
2022-08-26T03:58:37.981Z,100.00
2022-08-26T03:59:25.005Z,100.00
2022-08-26T04:00:15.461Z,100.00
2022-08-26T04:01:05.528Z,100.00
2022-08-26T04:01:54.733Z,100.00
2022-08-26T04:02:46.404Z,100.00
2022-08-26T04:03:52.449Z,100.00
2022-08-26T04:04:39.901Z,100.00
2022-08-26T04:05:28.330Z,100.00
2022-08-26T04:06:15.391Z,100.00
2022-08-26T04:07:04.152Z,100.00
2022-08-26T04:07:51.593Z,100.00
2022-08-26T04:08:38.671Z,100.00
2022-08-26T04:09:27.680Z,100.00
2022-08-26T04:10:20.258Z,100.00
2022-08-26T04:11:07.659Z,100.00
2022-08-26T04:11:55.392Z,100.00
2022-08-26T04:12:44.252Z,100.00
2022-08-26T04:13:32.541Z,100.00
2022-08-26T04:14:22.371Z,100.00
2022-08-26T04:15:12.735Z,100.00
2022-08-26T04:15:59.928Z,100.00
2022-08-26T04:16:47.542Z,100.00
2022-08-26T04:17:34.771Z,100.00
2022-08-26T04:18:22.311Z,100.00
2022-08-26T04:19:10.632Z,100.00
2022-08-26T04:19:57.861Z,100.00
2022-08-26T04:20:44.632Z,100.00
2022-08-26T04:21:31.790Z,100.00
2022-08-26T04:22:24.963Z,100.00
2022-08-26T04:23:12.032Z,100.00
2022-08-26T04:23:59.272Z,100.00
2022-08-26T04:24:50.691Z,100.00
2022-08-26T04:25:37.531Z,100.00
2022-08-26T04:26:27.361Z,100.00
2022-08-26T04:27:14.435Z,100.00
2022-08-26T04:28:01.442Z,100.00
2022-08-26T04:28:49.680Z,100.00
2022-08-26T04:29:36.571Z,100.00
2022-08-26T04:30:25.692Z,100.00
2022-08-26T04:31:14.868Z,100.00
2022-08-26T04:32:03.260Z,100.00
2022-08-26T04:32:50.181Z,100.00
2022-08-26T04:33:37.040Z,100.00
2022-08-26T04:34:29.085Z,100.00
2022-08-26T04:35:15.981Z,100.00
2022-08-26T04:36:05.591Z,100.00
2022-08-26T04:36:52.542Z,100.00
2022-08-26T04:37:39.801Z,100.00
2022-08-26T04:38:30.502Z,100.00
2022-08-26T04:39:20.291Z,100.00
2022-08-26T04:40:10.219Z,100.00
2022-08-26T04:40:57.572Z,100.00
2022-08-26T04:41:44.992Z,100.00
2022-08-26T04:42:33.473Z,100.00
2022-08-26T04:43:21.165Z,100.00
2022-08-26T04:44:08.212Z,100.00
2022-08-26T04:44:55.558Z,100.00
2022-08-26T04:45:43.764Z,100.00
2022-08-26T04:46:30.820Z,100.00
2022-08-26T04:47:17.661Z,100.00
2022-08-26T04:48:06.393Z,100.00
2022-08-26T04:48:58.043Z,100.00
2022-08-26T04:49:45.243Z,99.50
2022-08-26T04:50:32.881Z,99.04
2022-08-26T04:51:20.774Z,98.70
2022-08-26T04:52:07.562Z,97.78
2022-08-26T04:52:55.474Z,97.67
2022-08-26T04:53:42.581Z,97.68
2022-08-26T04:54:29.491Z,97.28
2022-08-26T04:55:16.352Z,97.16
2022-08-26T04:56:03.881Z,96.61
2022-08-26T04:56:51.093Z,96.17
2022-08-26T04:57:37.964Z,95.53
2022-08-26T04:58:26.251Z,95.57
2022-08-26T04:59:17.055Z,95.25
2022-08-26T05:00:06.933Z,95.70
2022-08-26T05:00:55.232Z,95.48
2022-08-26T05:01:47.149Z,95.26
2022-08-26T05:02:35.074Z,94.49
2022-08-26T05:03:22.912Z,93.93
2022-08-26T05:04:10.270Z,93.68
2022-08-26T05:04:58.879Z,93.12
2022-08-26T05:05:47.666Z,92.94
2022-08-26T05:06:36.940Z,91.98
2022-08-26T05:07:24.201Z,91.50
2022-08-26T05:08:12.410Z,91.29
2022-08-26T05:08:59.294Z,91.50
2022-08-26T05:09:46.170Z,91.46
2022-08-26T05:10:35.233Z,91.79
2022-08-26T05:11:22.183Z,92.08
2022-08-26T05:12:09.883Z,92.54
2022-08-26T05:13:00.455Z,92.52
2022-08-26T05:13:47.562Z,92.35
2022-08-26T05:14:34.341Z,92.47
2022-08-26T05:15:21.252Z,91.78
2022-08-26T05:16:11.627Z,90.80
2022-08-26T05:16:58.798Z,89.79
2022-08-26T05:17:45.555Z,88.79
2022-08-26T05:18:34.322Z,87.96
2022-08-26T05:19:21.991Z,87.04
2022-08-26T05:20:09.232Z,86.21
2022-08-26T05:20:57.631Z,86.07
2022-08-26T05:21:44.462Z,86.00
2022-08-26T05:22:33.992Z,86.02
2022-08-26T05:23:22.986Z,86.17
2022-08-26T05:24:11.991Z,86.81
2022-08-26T05:24:58.731Z,87.19
2022-08-26T05:25:48.436Z,87.32
2022-08-26T05:26:35.183Z,87.83
2022-08-26T05:27:22.028Z,87.82
2022-08-26T05:28:10.508Z,87.82
2022-08-26T05:28:58.101Z,87.83
2022-08-26T05:29:45.521Z,88.38
2022-08-26T05:30:32.879Z,89.10
2022-08-26T05:31:24.337Z,89.43
2022-08-26T05:32:11.270Z,89.24
2022-08-26T05:32:58.263Z,89.38
2022-08-26T05:33:46.921Z,89.03
2022-08-26T05:34:33.822Z,88.21
2022-08-26T05:35:20.555Z,88.14
2022-08-26T05:36:11.183Z,88.12
2022-08-26T05:36:58.723Z,87.91
2022-08-26T05:37:45.572Z,87.76
2022-08-26T05:38:32.379Z,87.25
2022-08-26T05:39:20.011Z,87.61
2022-08-26T05:40:08.624Z,88.08
2022-08-26T05:40:57.934Z,88.22
2022-08-26T05:41:45.042Z,88.20
2022-08-26T05:42:33.582Z,87.84
2022-08-26T05:43:20.901Z,87.33
2022-08-26T05:44:10.371Z,86.53
2022-08-26T05:44:57.489Z,86.10
2022-08-26T05:45:47.263Z,85.66
2022-08-26T05:46:35.400Z,85.28
2022-08-26T05:47:22.335Z,85.57
2022-08-26T05:48:10.492Z,85.58
2022-08-26T05:48:57.755Z,85.33
2022-08-26T05:49:51.450Z,85.24
2022-08-26T05:50:44.199Z,84.87
2022-08-26T05:51:31.146Z,84.76
2022-08-26T05:52:18.054Z,84.08
2022-08-26T05:53:07.416Z,83.47
2022-08-26T05:53:56.282Z,82.82
2022-08-26T05:54:43.131Z,82.99
2022-08-26T05:55:30.087Z,82.92
2022-08-26T05:56:17.592Z,83.74
2022-08-26T05:57:04.632Z,84.84
2022-08-26T05:57:51.579Z,84.67
2022-08-26T05:58:40.865Z,83.96
2022-08-26T05:59:27.801Z,83.62
2022-08-26T06:00:16.331Z,83.76
2022-08-26T06:01:13.355Z,84.04
2022-08-26T06:02:00.226Z,83.33
2022-08-26T06:02:48.403Z,83.26
2022-08-26T06:03:37.572Z,83.14
2022-08-26T06:04:27.810Z,82.89
2022-08-26T06:05:16.675Z,83.10
2022-08-26T06:06:08.554Z,83.04
2022-08-26T06:06:58.142Z,82.97
2022-08-26T06:08:03.860Z,83.51
2022-08-26T06:08:51.616Z,83.12
2022-08-26T06:09:38.752Z,82.67
2022-08-26T06:10:33.149Z,80.44
2022-08-26T06:11:26.922Z,80.59
2022-08-26T06:12:13.883Z,80.74
2022-08-26T06:13:09.234Z,80.60
2022-08-26T06:14:03.996Z,81.14
2022-08-26T06:14:51.423Z,80.38
2022-08-26T06:15:46.330Z,79.44
2022-08-26T06:16:35.957Z,79.46
2022-08-26T06:17:22.760Z,78.80
2022-08-26T06:18:10.691Z,78.40
2022-08-26T06:18:57.832Z,78.70
2022-08-26T06:19:44.675Z,77.28
2022-08-26T06:20:32.290Z,77.01
2022-08-26T06:21:32.502Z,76.71
2022-08-26T06:22:38.531Z,75.66
2022-08-26T06:23:46.326Z,75.19
2022-08-26T06:24:52.142Z,74.94
2022-08-26T06:25:39.410Z,74.89
2022-08-26T06:26:26.597Z,74.51
2022-08-26T06:27:15.163Z,74.26
2022-08-26T06:28:02.500Z,75.19
2022-08-26T06:28:50.082Z,75.40
2022-08-26T06:29:37.811Z,74.43
2022-08-26T06:30:24.805Z,73.50
2022-08-26T06:31:12.856Z,72.37
2022-08-26T06:32:00.541Z,72.64
2022-08-26T06:32:47.483Z,71.36
2022-08-26T06:33:36.581Z,70.59
2022-08-26T06:34:29.787Z,71.59
2022-08-26T06:35:17.343Z,71.88
2022-08-26T06:36:04.462Z,71.52
2022-08-26T06:36:53.112Z,71.75
2022-08-26T06:37:40.780Z,72.16
2022-08-26T06:38:28.974Z,71.75
2022-08-26T06:39:17.952Z,72.14
2022-08-26T06:40:07.830Z,71.52
2022-08-26T06:40:59.766Z,72.23
2022-08-26T06:41:46.903Z,72.68
2022-08-26T06:42:34.042Z,72.27
2022-08-26T06:43:23.973Z,72.87
2022-08-26T06:44:12.915Z,73.97
2022-08-26T06:44:59.948Z,73.79
2022-08-26T06:45:47.491Z,73.36
2022-08-26T06:46:35.107Z,73.15
2022-08-26T06:47:22.326Z,73.20
2022-08-26T06:48:09.339Z,72.52
2022-08-26T06:49:00.443Z,73.33
2022-08-26T06:49:47.466Z,73.24
2022-08-26T06:50:35.395Z,72.60
2022-08-26T06:51:26.432Z,73.01
2022-08-26T06:52:13.411Z,71.75
2022-08-26T06:53:00.283Z,71.52
2022-08-26T06:53:49.053Z,71.32
2022-08-26T06:54:37.233Z,72.60
2022-08-26T06:55:27.131Z,72.24
2022-08-26T06:56:17.113Z,72.31
2022-08-26T06:57:04.055Z,72.56
2022-08-26T06:57:51.081Z,72.88
2022-08-26T06:58:39.394Z,72.82
2022-08-26T06:59:28.501Z,72.13
2022-08-26T07:00:18.481Z,70.81
2022-08-26T07:01:15.849Z,70.56
2022-08-26T07:02:06.307Z,71.02
2022-08-26T07:02:55.196Z,71.18
2022-08-26T07:03:42.132Z,70.86
2022-08-26T07:04:34.831Z,68.66
2022-08-26T07:05:22.632Z,68.21
2022-08-26T07:06:11.030Z,69.07
2022-08-26T07:06:58.131Z,69.54
2022-08-26T07:07:45.044Z,69.19
2022-08-26T07:08:31.992Z,68.98
2022-08-26T07:09:22.951Z,68.73
2022-08-26T07:10:10.301Z,68.06
2022-08-26T07:10:57.373Z,67.94
2022-08-26T07:11:44.820Z,68.32
2022-08-26T07:12:32.435Z,67.98
2022-08-26T07:13:29.969Z,67.99
2022-08-26T07:14:21.199Z,67.15
2022-08-26T07:15:08.891Z,67.48
2022-08-26T07:15:58.195Z,67.08
2022-08-26T07:16:50.727Z,68.09
2022-08-26T07:17:39.011Z,67.92
2022-08-26T07:18:27.358Z,67.90
2022-08-26T07:19:15.636Z,68.44
2022-08-26T07:20:07.570Z,68.66
2022-08-26T07:20:54.880Z,68.96
2022-08-26T07:21:43.159Z,67.36
2022-08-26T07:22:30.543Z,66.92
2022-08-26T07:23:17.398Z,67.43
2022-08-26T07:24:04.636Z,66.87
2022-08-26T07:24:51.556Z,67.18
2022-08-26T07:25:40.179Z,67.23
2022-08-26T07:26:29.330Z,68.60
2022-08-26T07:27:17.149Z,68.25
2022-08-26T07:28:04.462Z,68.15
2022-08-26T07:28:53.486Z,68.31
2022-08-26T07:29:41.024Z,67.67
2022-08-26T07:30:27.876Z,66.49
2022-08-26T07:31:15.896Z,67.40
2022-08-26T07:32:03.502Z,67.17
2022-08-26T07:32:50.466Z,66.93
2022-08-26T07:33:39.117Z,66.86
2022-08-26T07:34:26.304Z,67.39
2022-08-26T07:35:14.318Z,67.83
2022-08-26T07:36:01.388Z,65.97
2022-08-26T07:36:51.806Z,67.02
2022-08-26T07:37:39.338Z,67.10
2022-08-26T07:38:26.326Z,66.98
2022-08-26T07:39:13.166Z,66.16
2022-08-26T07:40:00.231Z,66.40
2022-08-26T07:40:48.229Z,65.90
2022-08-26T07:41:36.723Z,64.77
2022-08-26T07:42:24.063Z,64.73
2022-08-26T07:43:11.008Z,65.82
2022-08-26T07:43:57.806Z,64.60
2022-08-26T07:44:45.855Z,64.75
2022-08-26T07:45:32.985Z,64.31
2022-08-26T07:46:27.147Z,64.73
2022-08-26T07:47:24.870Z,65.00
2022-08-26T07:48:13.308Z,64.59
2022-08-26T07:49:00.267Z,64.76
2022-08-26T07:49:47.260Z,64.79
2022-08-26T07:50:49.011Z,64.86
2022-08-26T07:51:37.845Z,64.13
2022-08-26T07:52:27.717Z,64.01
2022-08-26T07:53:15.069Z,64.31
2022-08-26T07:54:07.013Z,64.26
2022-08-26T07:54:54.236Z,64.16
2022-08-26T07:55:41.357Z,64.21
2022-08-26T07:56:28.438Z,63.93
2022-08-26T07:57:15.306Z,64.12
2022-08-26T07:58:06.540Z,64.08
2022-08-26T07:58:54.422Z,64.04
2022-08-26T07:59:41.607Z,63.59
2022-08-26T08:00:29.820Z,64.33
2022-08-26T08:01:16.807Z,64.89
2022-08-26T08:02:03.917Z,64.62
2022-08-26T08:02:51.526Z,63.94
2022-08-26T08:03:42.456Z,62.95
2022-08-26T08:04:29.597Z,62.97
2022-08-26T08:05:18.707Z,63.00
2022-08-26T08:06:05.800Z,63.08
2022-08-26T08:06:53.296Z,62.57
2022-08-26T08:07:44.839Z,62.34
2022-08-26T08:08:33.096Z,62.13
2022-08-26T08:09:20.086Z,61.92
2022-08-26T08:10:11.634Z,62.01
2022-08-26T08:10:58.841Z,62.12
2022-08-26T08:11:46.868Z,62.13
2022-08-26T08:12:35.276Z,62.20
2022-08-26T08:13:22.797Z,62.10
2022-08-26T08:14:11.836Z,61.74
2022-08-26T08:14:58.857Z,61.90
2022-08-26T08:15:46.386Z,62.39
2022-08-26T08:16:33.602Z,61.95
2022-08-26T08:17:21.767Z,59.91
2022-08-26T08:18:15.434Z,60.36
2022-08-26T08:19:02.846Z,61.48
2022-08-26T08:19:50.696Z,62.10
2022-08-26T08:20:37.616Z,61.53
2022-08-26T08:21:26.272Z,60.97
2022-08-26T08:22:17.386Z,60.71
2022-08-26T08:23:04.718Z,60.65
2022-08-26T08:23:56.439Z,61.50
2022-08-26T08:24:43.776Z,61.22
2022-08-26T08:25:32.526Z,62.43
2022-08-26T08:26:19.653Z,60.97
2022-08-26T08:27:07.057Z,60.94
2022-08-26T08:27:55.616Z,60.84
2022-08-26T08:28:44.056Z,60.99
2022-08-26T08:29:30.993Z,59.06
2022-08-26T08:30:20.886Z,57.04
2022-08-26T08:31:11.474Z,57.00
2022-08-26T08:31:59.988Z,57.65
2022-08-26T08:32:47.426Z,57.89
2022-08-26T08:33:35.481Z,58.63
2022-08-26T08:34:23.007Z,58.25
2022-08-26T08:35:12.619Z,57.97
2022-08-26T08:36:00.420Z,57.69
2022-08-26T08:36:47.752Z,58.01
2022-08-26T08:37:36.668Z,58.10
2022-08-26T08:38:24.076Z,58.42
2022-08-26T08:39:11.926Z,58.62
2022-08-26T08:39:59.827Z,57.75
2022-08-26T08:40:47.136Z,56.95
2022-08-26T08:41:53.528Z,56.84
2022-08-26T08:43:24.885Z,56.97
2022-08-26T08:45:23.737Z,55.66
2022-08-26T08:46:13.276Z,55.96
2022-08-26T08:47:06.226Z,56.76
2022-08-26T08:47:59.757Z,56.25
2022-08-26T08:48:53.940Z,55.46
2022-08-26T08:49:42.316Z,55.44
2022-08-26T08:50:43.441Z,55.79
2022-08-26T08:51:50.577Z,56.22
2022-08-26T08:52:38.166Z,56.82
2022-08-26T08:53:36.025Z,56.11
2022-08-26T08:54:26.526Z,54.24
2022-08-26T08:55:17.751Z,55.29
2022-08-26T08:56:10.876Z,54.65
2022-08-26T08:57:04.046Z,56.18
2022-08-26T08:58:02.447Z,55.06
2022-08-26T08:59:07.548Z,55.52
2022-08-26T09:00:05.737Z,55.84
2022-08-26T09:01:00.263Z,55.18
2022-08-26T09:01:52.447Z,56.05
2022-08-26T09:03:31.116Z,55.40
2022-08-26T09:04:26.986Z,56.08
2022-08-26T09:05:25.573Z,55.94
2022-08-26T09:06:18.864Z,56.05
2022-08-26T09:07:11.035Z,55.55
2022-08-26T09:08:11.295Z,55.44
2022-08-26T09:08:58.256Z,56.20
2022-08-26T09:09:50.257Z,54.77
2022-08-26T09:10:45.128Z,54.07
2022-08-26T09:11:32.713Z,52.80
2022-08-26T09:12:29.846Z,51.27
2022-08-26T09:13:19.590Z,51.88
2022-08-26T09:14:13.236Z,53.26
2022-08-26T09:15:12.227Z,51.87
2022-08-26T09:16:06.897Z,51.47
2022-08-26T09:17:06.294Z,52.52
2022-08-26T09:18:06.696Z,50.88
2022-08-26T09:19:08.885Z,50.94
2022-08-26T09:20:06.277Z,52.38
2022-08-26T09:21:14.392Z,51.04
2022-08-26T09:22:04.738Z,50.58
2022-08-26T09:22:56.977Z,51.11
2022-08-26T09:23:47.005Z,51.35
2022-08-26T09:24:41.772Z,51.56
2022-08-26T09:25:46.122Z,53.07
2022-08-26T09:26:39.581Z,52.36
2022-08-26T09:27:50.431Z,53.05
2022-08-26T09:28:42.503Z,51.93
2022-08-26T09:29:32.648Z,48.63
2022-08-26T09:30:30.590Z,48.64
2022-08-26T09:31:24.349Z,48.32
2022-08-26T09:32:24.450Z,49.06
2022-08-26T09:33:17.067Z,48.54
2022-08-26T09:34:22.617Z,48.56
2022-08-26T09:35:32.120Z,47.22
2022-08-26T09:36:26.386Z,47.19
2022-08-26T09:37:14.118Z,46.80
2022-08-26T09:38:00.976Z,48.21
2022-08-26T09:38:52.414Z,48.93
2022-08-26T09:39:39.696Z,49.91
2022-08-26T09:40:34.643Z,49.67
2022-08-26T09:41:34.035Z,49.38
2022-08-26T09:42:22.941Z,49.71
2022-08-26T09:43:22.150Z,50.51
2022-08-26T09:44:14.740Z,51.64
2022-08-26T09:45:06.716Z,48.11
2022-08-26T09:45:59.319Z,48.25
2022-08-26T09:46:54.716Z,49.17
2022-08-26T09:47:47.999Z,50.00
2022-08-26T09:48:37.196Z,50.11
2022-08-26T09:49:37.496Z,49.43
2022-08-26T09:50:33.866Z,50.41
2022-08-26T09:51:23.487Z,51.94
2022-08-26T09:52:22.468Z,50.91
2022-08-26T09:53:12.939Z,51.66
2022-08-26T09:54:02.040Z,50.99
2022-08-26T09:55:24.196Z,51.19
2022-08-26T09:56:23.666Z,50.50
2022-08-26T09:57:21.328Z,51.05
2022-08-26T09:58:09.588Z,50.18
2022-08-26T09:58:57.364Z,50.69
2022-08-26T09:59:44.559Z,50.27
2022-08-26T10:00:39.200Z,50.71
2022-08-26T10:01:36.194Z,51.63
2022-08-26T10:02:32.518Z,51.01
2022-08-26T10:03:38.696Z,51.59
2022-08-26T10:04:30.887Z,49.86
2022-08-26T10:05:30.187Z,49.81
2022-08-26T10:06:17.067Z,50.74
2022-08-26T10:07:10.276Z,50.53
2022-08-26T10:07:59.594Z,49.89
2022-08-26T10:08:50.379Z,50.09
2022-08-26T10:09:43.268Z,49.56
2022-08-26T10:10:37.049Z,49.35
2022-08-26T10:11:35.496Z,49.40
2022-08-26T10:12:23.313Z,50.31
2022-08-26T10:13:17.136Z,49.90
2022-08-26T10:14:39.976Z,49.98
2022-08-26T10:15:27.838Z,51.35
2022-08-26T10:16:24.334Z,51.77
2022-08-26T10:17:32.467Z,51.93
2022-08-26T10:18:29.695Z,50.85
2022-08-26T10:19:23.207Z,50.67
2022-08-26T10:20:23.654Z,50.13
2022-08-26T10:21:18.003Z,50.80
2022-08-26T10:22:26.366Z,51.27
2022-08-26T10:23:26.466Z,50.06
2022-08-26T10:24:17.761Z,50.09
2022-08-26T10:25:12.119Z,50.49
2022-08-26T10:26:21.136Z,49.59
2022-08-26T10:27:51.010Z,49.93
2022-08-26T10:28:50.336Z,49.68
2022-08-26T10:29:46.461Z,50.24
2022-08-26T10:30:46.596Z,49.20
2022-08-26T10:31:58.756Z,50.52
2022-08-26T10:32:54.077Z,51.02
2022-08-26T10:33:41.082Z,49.90
2022-08-26T10:34:27.967Z,49.28
2022-08-26T10:35:16.962Z,49.26
2022-08-26T10:36:07.306Z,49.43
2022-08-26T10:37:13.536Z,48.42
2022-08-26T10:38:09.506Z,49.23
2022-08-26T10:38:59.176Z,47.57
2022-08-26T10:39:49.467Z,47.39
2022-08-26T10:41:11.886Z,48.33
2022-08-26T10:42:07.914Z,48.75